EGMD

Lydd Airport

Lydd, Ashford, United Kingdom
METAR EGMD 140520Z AUTO 22017KT 9999 BKN017/// 13/10 Q1024
Observed Flight Rules
Nov-14 @ 05:20 UTC (13 minutes ago) Marginal Visual Flight Rules
Wind Visibility Clouds
220° at 17 knots 10,000+ meters
  • Broken at 1,700' AGL
Temperatures Readings
Current 13°C / 55°F
Dewpoint 10°C / 50°F
Humidity 82%
Altimeter 30.24" Hg
Pressure 1024 hPa
Elevation 3
METAR EGMD 140520Z AUTO 22017KT 9999 BKN017/// 13/10 Q1024
Observed Flight Rules
Nov-14 @ 05:20 UTC
(13 minutes ago)
MVFR
Wind Visibility
220° at 17 knots 10,000+ meters
Clouds
  • Broken at 1,700' AGL
Temperature Dewpoint
13°C / 55°F 10°C / 50°F
Humidity Altimeter Pressure
82% 30.24" Hg 1024 hPa